createdAt,value
2022-07-29T00:02:25.278Z,100506.63
2022-07-29T00:07:32.546Z,100502.31
2022-07-29T00:12:38.842Z,100494.34
2022-07-29T00:17:52.006Z,100479.44
2022-07-29T00:23:06.390Z,100477.31
2022-07-29T00:28:12.542Z,100455.47
2022-07-29T00:33:20.161Z,100451.34
2022-07-29T00:38:28.252Z,100448.78
2022-07-29T00:43:44.814Z,100449.94
2022-07-29T00:48:49.515Z,100431.28
2022-07-29T00:53:58.699Z,100421.22
2022-07-29T00:59:05.654Z,100411.59
2022-07-29T01:04:12.212Z,100424.22
2022-07-29T01:09:19.997Z,100419.28
2022-07-29T01:15:00.146Z,100418.28
2022-07-29T01:20:17.835Z,100422.47
2022-07-29T01:25:53.190Z,100412.06
2022-07-29T01:31:25.261Z,100415.06
2022-07-29T01:36:35.818Z,100411.47
2022-07-29T01:42:01.706Z,100406.19
2022-07-29T01:47:20.226Z,100404.72
2022-07-29T01:52:38.405Z,100396.47
2022-07-29T01:57:50.024Z,100406.91
2022-07-29T02:03:03.249Z,100397.09
2022-07-29T02:08:15.145Z,100393.69
2022-07-29T02:13:28.134Z,100392.88
2022-07-29T02:18:44.516Z,100397.41
2022-07-29T02:23:55.320Z,100395.66
2022-07-29T02:29:22.163Z,100386.34
2022-07-29T02:34:43.648Z,100380.41
2022-07-29T02:39:57.160Z,100379.75
2022-07-29T02:45:07.965Z,100383.22
2022-07-29T02:50:29.901Z,100386.88
2022-07-29T02:55:43.426Z,100376.47
2022-07-29T03:00:52.648Z,100373.81
2022-07-29T03:06:03.369Z,100372.97
2022-07-29T03:11:09.483Z,100374.19
2022-07-29T03:16:20.445Z,100369.03
2022-07-29T03:21:30.424Z,100366.38
2022-07-29T03:26:39.561Z,100372.69
2022-07-29T03:31:52.755Z,100376.50
2022-07-29T03:37:01.299Z,100369.13
2022-07-29T03:42:10.989Z,100363.16
2022-07-29T03:47:17.071Z,100373.94
2022-07-29T03:52:33.279Z,100370.00
2022-07-29T03:57:43.004Z,100375.47
2022-07-29T04:02:50.055Z,100387.94
2022-07-29T04:08:14.354Z,100376.84
2022-07-29T04:13:24.425Z,100386.78
2022-07-29T04:19:06.344Z,100395.72
2022-07-29T04:24:19.281Z,100390.72
2022-07-29T04:29:56.983Z,100399.38
2022-07-29T04:35:01.868Z,100398.03
2022-07-29T04:40:31.368Z,100385.41
2022-07-29T04:45:38.070Z,100394.00
2022-07-29T04:50:49.098Z,100405.25
2022-07-29T04:56:01.884Z,100388.66
2022-07-29T05:01:07.839Z,100395.41
2022-07-29T05:06:13.835Z,100392.09
2022-07-29T05:11:30.602Z,100397.78
2022-07-29T05:16:41.459Z,100395.94
2022-07-29T05:22:03.112Z,100396.91
2022-07-29T05:27:17.394Z,100394.50
2022-07-29T05:32:20.986Z,100396.97
2022-07-29T05:37:32.489Z,100392.94
2022-07-29T05:42:41.640Z,100399.91
2022-07-29T05:47:50.447Z,100398.16
2022-07-29T05:53:20.023Z,100392.78
2022-07-29T05:59:05.574Z,100396.06
2022-07-29T06:04:24.857Z,100384.97
2022-07-29T06:09:52.043Z,100385.47
2022-07-29T06:15:19.057Z,100376.25
2022-07-29T06:20:27.306Z,100371.56
2022-07-29T06:25:51.728Z,100377.66
2022-07-29T06:31:22.577Z,100378.78
2022-07-29T06:36:35.714Z,100385.09
2022-07-29T06:41:52.800Z,100376.31
2022-07-29T06:47:04.707Z,100380.56
2022-07-29T06:52:10.261Z,100389.78
2022-07-29T06:57:20.838Z,100384.94
2022-07-29T07:02:32.689Z,100405.22
2022-07-29T07:07:49.063Z,100411.97
2022-07-29T07:12:57.860Z,100382.13
2022-07-29T07:18:05.778Z,100393.97
2022-07-29T07:23:12.648Z,100391.78
2022-07-29T07:28:18.458Z,100400.28
2022-07-29T07:33:39.558Z,100391.16
2022-07-29T07:38:45.147Z,100398.72
2022-07-29T07:43:52.939Z,100397.28
2022-07-29T07:49:04.506Z,100392.97
2022-07-29T07:54:18.437Z,100384.03
2022-07-29T07:59:30.161Z,100385.06
2022-07-29T08:04:38.472Z,100379.72
2022-07-29T08:09:57.142Z,100377.66
2022-07-29T08:15:21.298Z,100385.00
2022-07-29T08:20:31.225Z,100382.56
2022-07-29T08:25:38.600Z,100370.06
2022-07-29T08:30:48.650Z,100370.91
2022-07-29T08:35:55.037Z,100356.09
2022-07-29T08:41:04.258Z,100351.75
2022-07-29T08:46:16.723Z,100348.59
2022-07-29T08:51:33.882Z,100345.22
2022-07-29T08:56:42.849Z,100335.75
2022-07-29T09:01:51.051Z,100333.84
2022-07-29T09:07:21.768Z,100337.03
2022-07-29T09:12:28.837Z,100336.53
2022-07-29T09:17:55.844Z,100333.69
2022-07-29T09:23:23.398Z,100336.19
2022-07-29T09:28:46.982Z,100330.78
2022-07-29T09:39:47.439Z,100329.69
2022-07-29T09:44:54.509Z,100328.56
2022-07-29T09:50:20.742Z,100335.16
2022-07-29T09:55:37.453Z,100326.22
2022-07-29T10:01:04.798Z,100313.91
2022-07-29T10:06:11.258Z,100327.16
2022-07-29T10:11:48.971Z,100306.75
2022-07-29T10:16:56.352Z,100293.22
2022-07-29T10:22:36.902Z,100300.38
2022-07-29T10:28:16.552Z,100294.38
2022-07-29T10:33:40.396Z,100297.41
2022-07-29T10:38:59.724Z,100286.78
2022-07-29T10:44:41.036Z,100278.84
2022-07-29T10:50:04.570Z,100279.03
2022-07-29T10:55:43.689Z,100275.53
2022-07-29T11:00:57.563Z,100276.50
2022-07-29T11:06:08.741Z,100277.28
2022-07-29T11:11:43.918Z,100273.19
2022-07-29T11:17:06.908Z,100271.47
2022-07-29T11:22:45.809Z,100264.28
2022-07-29T11:27:54.599Z,100265.13
2022-07-29T11:33:00.364Z,100263.31
2022-07-29T11:38:31.925Z,100259.72
2022-07-29T11:43:50.777Z,100248.91
2022-07-29T11:49:09.682Z,100258.22
2022-07-29T11:54:27.437Z,100250.81
2022-07-29T11:59:35.505Z,100238.81
2022-07-29T12:04:53.585Z,100223.78
2022-07-29T12:10:30.087Z,100215.44
2022-07-29T12:15:45.957Z,100208.19
2022-07-29T12:20:56.103Z,100206.88
2022-07-29T12:44:10.428Z,100185.06
2022-07-29T12:49:38.146Z,100189.88
2022-07-29T12:54:52.448Z,100197.75
2022-07-29T13:00:06.073Z,100194.84
2022-07-29T13:05:14.542Z,100191.34
2022-07-29T13:10:24.059Z,100184.91
2022-07-29T13:15:35.145Z,100186.25
2022-07-29T13:20:43.705Z,100177.09
2022-07-29T13:25:52.246Z,100182.22
2022-07-29T13:31:00.762Z,100179.53
2022-07-29T13:36:17.860Z,100168.53
2022-07-29T13:41:25.218Z,100163.16
2022-07-29T13:46:36.529Z,100170.91
2022-07-29T13:51:49.156Z,100164.78
2022-07-29T13:56:57.583Z,100158.84
2022-07-29T14:02:13.343Z,100161.00
2022-07-29T14:07:22.682Z,100155.25
2022-07-29T14:12:27.385Z,100148.75
2022-07-29T14:17:33.311Z,100143.66
2022-07-29T14:22:45.067Z,100146.66
2022-07-29T14:28:00.284Z,100146.13
2022-07-29T14:33:07.379Z,100132.00
2022-07-29T14:38:18.363Z,100127.38
2022-07-29T14:43:25.359Z,100127.38
2022-07-29T14:48:33.695Z,100136.03
2022-07-29T14:53:42.439Z,100142.41
2022-07-29T14:58:52.615Z,100132.16
2022-07-29T15:04:11.079Z,100137.53
2022-07-29T15:09:20.767Z,100124.56
2022-07-29T15:14:40.362Z,100138.38
2022-07-29T15:19:57.003Z,100127.59
2022-07-29T15:25:22.313Z,100130.59
2022-07-29T15:30:44.984Z,100121.09
2022-07-29T15:35:59.670Z,100117.56
2022-07-29T15:41:06.961Z,100116.78
2022-07-29T15:46:29.484Z,100113.59
2022-07-29T15:51:38.397Z,100122.22
2022-07-29T15:56:44.986Z,100154.13
2022-07-29T16:01:55.841Z,100157.47
2022-07-29T16:07:11.002Z,100158.44
2022-07-29T16:12:29.289Z,100152.66
2022-07-29T16:17:46.812Z,100152.06
2022-07-29T16:23:03.899Z,100140.28
2022-07-29T16:28:11.765Z,100150.53
2022-07-29T16:33:26.897Z,100142.88
2022-07-29T16:38:47.153Z,100133.56
2022-07-29T16:43:56.636Z,100118.50
2022-07-29T16:49:16.985Z,100124.84
2022-07-29T16:54:29.965Z,100129.03
2022-07-29T16:59:43.536Z,100120.88
2022-07-29T17:10:25.070Z,100126.97
2022-07-29T17:15:37.202Z,100119.59
2022-07-29T17:20:49.911Z,100115.84
2022-07-29T17:26:00.442Z,100118.44
2022-07-29T17:31:08.261Z,100116.00
2022-07-29T17:36:28.164Z,100123.50
2022-07-29T17:41:40.066Z,100131.13
2022-07-29T17:47:15.557Z,100118.63
2022-07-29T17:52:43.181Z,100116.69
2022-07-29T17:58:01.964Z,100127.09
2022-07-29T18:03:10.375Z,100133.66
2022-07-29T18:08:23.013Z,100129.69
2022-07-29T18:13:29.124Z,100120.94
2022-07-29T18:18:39.690Z,100124.31
2022-07-29T18:23:51.284Z,100124.56
2022-07-29T18:29:02.813Z,100123.31
2022-07-29T18:34:13.951Z,100129.41
2022-07-29T18:39:24.198Z,100129.41
2022-07-29T18:44:43.890Z,100130.59
2022-07-29T18:49:56.707Z,100131.63
2022-07-29T18:55:13.809Z,100129.91
2022-07-29T19:00:40.939Z,100139.78
2022-07-29T19:05:53.708Z,100140.09
2022-07-29T19:10:59.179Z,100129.63
2022-07-29T19:16:14.766Z,100127.63
2022-07-29T19:21:32.437Z,100141.72
2022-07-29T19:26:56.655Z,100139.00
2022-07-29T19:32:24.781Z,100142.03
2022-07-29T19:37:36.473Z,100147.03
2022-07-29T19:42:48.509Z,100149.66
2022-07-29T19:48:09.275Z,100156.66
2022-07-29T19:53:17.222Z,100155.69
2022-07-29T19:58:28.807Z,100162.88
2022-07-29T20:03:36.314Z,100156.50
2022-07-29T20:08:44.625Z,100163.72
2022-07-29T20:14:12.209Z,100160.00
2022-07-29T20:19:18.517Z,100159.03
2022-07-29T20:24:32.570Z,100170.00
2022-07-29T20:29:38.274Z,100158.91
2022-07-29T20:40:33.480Z,100167.03
2022-07-29T20:45:41.840Z,100175.53
2022-07-29T20:50:53.568Z,100179.72
2022-07-29T20:56:04.976Z,100178.28
2022-07-29T21:01:30.699Z,100186.19
2022-07-29T21:06:40.897Z,100192.88
2022-07-29T21:11:47.516Z,100195.47
2022-07-29T21:17:06.301Z,100200.50
2022-07-29T21:22:11.359Z,100205.38
2022-07-29T21:27:42.422Z,100225.59
2022-07-29T21:32:51.323Z,100224.16
2022-07-29T21:38:00.308Z,100244.25
2022-07-29T21:43:14.453Z,100253.22
2022-07-29T21:48:20.397Z,100268.09
2022-07-29T21:53:28.063Z,100265.06
2022-07-29T21:58:34.318Z,100272.53
2022-07-29T22:03:45.286Z,100265.19
2022-07-29T22:08:52.921Z,100262.16
2022-07-29T22:14:17.260Z,100262.34
2022-07-29T22:19:34.631Z,100264.22
2022-07-29T22:24:45.172Z,100253.16
2022-07-29T22:29:52.941Z,100241.69
2022-07-29T22:35:02.503Z,100238.56
2022-07-29T22:40:15.063Z,100249.00
2022-07-29T22:45:25.882Z,100246.28
2022-07-29T22:50:33.078Z,100259.81
2022-07-29T22:55:38.308Z,100248.72
2022-07-29T23:00:53.600Z,100270.63
2022-07-29T23:06:00.435Z,100263.03
2022-07-29T23:11:13.894Z,100255.66
2022-07-29T23:16:47.028Z,100253.59
2022-07-29T23:21:55.729Z,100246.97
2022-07-29T23:26:59.976Z,100252.66
2022-07-29T23:32:16.087Z,100254.03
2022-07-29T23:37:21.321Z,100256.50
2022-07-29T23:42:27.100Z,100266.50
2022-07-29T23:47:37.854Z,100264.44
2022-07-29T23:52:46.601Z,100271.34
2022-07-29T23:57:54.918Z,100278.09
